Time;durP1;ratioP1;P1;durP2;ratioP2;P2;SDS_P1;SDS_P2;PMS_P1;PMS_P2;Temp;Humidity;BMP_temperature;BMP_pressure;BME280_temperature;BME280_humidity;BME280_pressure;Samples;Min_cycle;Max_cycle;Signal;HPM_P1;HPM_P2
2023/01/22 00:01:26;;;;;;;6.57;5.90;;;2.20;99.90;;;;;;4931121;28;20479;-78
2023/01/22 00:03:59;;;;;;;7.23;6.13;;;2.20;99.90;;;;;;4926352;29;20469;-77
2023/01/22 00:06:32;;;;;;;6.20;5.60;;;2.20;99.90;;;;;;4930315;29;20504;-77
2023/01/22 00:09:02;;;;;;;7.23;6.53;;;2.20;99.90;;;;;;4928591;29;20535;-78
2023/01/22 00:11:34;;;;;;;7.17;6.00;;;2.20;99.90;;;;;;4930758;28;20566;-77
2023/01/22 00:14:02;;;;;;;8.83;6.67;;;2.20;99.90;;;;;;4925090;29;20467;-78
2023/01/22 00:16:33;;;;;;;7.60;6.90;;;2.20;99.90;;;;;;4923024;29;20544;-77
2023/01/22 00:19:03;;;;;;;6.77;6.17;;;2.20;99.90;;;;;;4930625;29;20497;-77
2023/01/22 00:21:37;;;;;;;7.00;6.40;;;2.20;99.90;;;;;;4925967;28;20475;-78
2023/01/22 00:24:08;;;;;;;6.83;6.13;;;2.20;99.90;;;;;;4925863;29;20472;-77
2023/01/22 00:26:37;;;;;;;6.93;6.33;;;2.20;99.90;;;;;;4937350;29;20475;-78
2023/01/22 00:29:11;;;;;;;6.73;6.13;;;2.20;99.90;;;;;;4928262;29;20512;-78
2023/01/22 00:31:43;;;;;;;7.20;6.60;;;2.20;99.90;;;;;;4926066;29;21215;-78
2023/01/22 00:34:11;;;;;;;6.87;6.20;;;2.20;99.90;;;;;;4934625;29;20476;-78
2023/01/22 00:36:42;;;;;;;6.80;6.20;;;2.20;99.90;;;;;;4980465;23;20555;-88
2023/01/22 00:39:10;;;;;;;7.47;6.20;;;2.10;99.90;;;;;;4960109;28;20491;-89
2023/01/22 00:41:40;;;;;;;6.17;5.60;;;2.10;99.90;;;;;;4947316;28;20491;-89
2023/01/22 00:44:11;;;;;;;7.33;6.63;;;2.10;99.90;;;;;;4958731;28;20460;-90
2023/01/22 00:46:42;;;;;;;7.20;6.50;;;2.10;99.90;;;;;;4954384;28;20635;-89
2023/01/22 00:49:21;;;;;;;8.47;6.80;;;2.10;99.90;;;;;;4930405;29;20471;-89
2023/01/22 00:51:52;;;;;;;7.33;6.63;;;2.10;99.90;;;;;;4936936;28;20466;-89
2023/01/22 00:54:23;;;;;;;6.73;6.03;;;2.10;99.90;;;;;;4931295;28;20489;-89
2023/01/22 00:56:51;;;;;;;6.90;6.20;;;2.10;99.90;;;;;;4929924;29;20490;-88
2023/01/22 00:59:27;;;;;;;6.60;6.00;;;2.10;99.90;;;;;;4937877;28;20476;-89
2023/01/22 01:01:58;;;;;;;7.30;6.17;;;2.10;99.90;;;;;;4933363;28;20465;-88
2023/01/22 01:04:26;;;;;;;7.40;6.43;;;2.10;99.90;;;;;;4935012;28;20528;-88
2023/01/22 01:07:01;;;;;;;6.80;6.20;;;2.10;99.90;;;;;;4939739;28;20476;-88
2023/01/22 01:09:30;;;;;;;7.60;7.00;;;2.10;99.90;;;;;;4931256;29;20496;-89
2023/01/22 01:12:07;;;;;;;7.77;6.97;;;2.10;99.90;;;;;;4932278;29;20491;-88
2023/01/22 01:14:40;;;;;;;7.10;6.40;;;2.00;99.90;;;;;;4938040;28;20484;-89
2023/01/22 01:17:08;;;;;;;6.83;6.23;;;2.10;99.90;;;;;;4928867;28;20476;-89
2023/01/22 01:19:38;;;;;;;6.50;5.90;;;2.10;99.90;;;;;;4936576;28;20457;-89
2023/01/22 01:22:12;;;;;;;6.77;6.13;;;2.10;99.90;;;;;;4937024;28;20494;-89
2023/01/22 01:24:43;;;;;;;6.53;5.93;;;2.10;99.90;;;;;;4946339;28;20459;-87
2023/01/22 01:27:13;;;;;;;8.00;6.10;;;2.10;99.90;;;;;;4933774;28;20483;-88
2023/01/22 01:29:44;;;;;;;6.43;5.80;;;2.10;99.90;;;;;;4936155;28;20458;-89
2023/01/22 01:32:12;;;;;;;6.30;5.70;;;2.10;99.90;;;;;;4935397;28;20469;-88
2023/01/22 01:34:40;;;;;;;6.57;5.90;;;2.10;99.90;;;;;;4934815;28;20453;-89
2023/01/22 01:37:10;;;;;;;6.57;5.87;;;2.10;99.90;;;;;;4932008;28;20544;-90
2023/01/22 01:39:40;;;;;;;6.50;5.90;;;2.10;99.90;;;;;;4940820;28;20492;-89
2023/01/22 01:42:09;;;;;;;6.67;6.03;;;2.10;99.90;;;;;;4938799;28;20483;-90
2023/01/22 01:44:42;;;;;;;6.10;5.60;;;2.10;99.90;;;;;;4933692;28;20483;-88
2023/01/22 01:47:27;;;;;;;5.57;5.10;;;2.10;99.90;;;;;;4934555;28;20465;-87
2023/01/22 01:50:00;;;;;;;5.90;5.40;;;2.10;99.90;;;;;;4938648;29;20460;-88
2023/01/22 01:52:32;;;;;;;5.97;5.47;;;2.10;99.90;;;;;;4931261;29;20568;-90
2023/01/22 01:55:06;;;;;;;5.77;5.27;;;2.20;99.90;;;;;;4926764;29;20479;-88
2023/01/22 01:57:37;;;;;;;6.13;5.53;;;2.20;99.90;;;;;;4936529;28;20478;-89
2023/01/22 02:00:14;;;;;;;6.53;5.90;;;2.20;99.90;;;;;;4935902;28;20487;-89
2023/01/22 02:02:54;;;;;;;6.37;5.73;;;2.20;99.90;;;;;;4929341;28;20471;-88
2023/01/22 02:05:23;;;;;;;5.40;4.90;;;2.20;99.90;;;;;;4932867;28;20504;-88
2023/01/22 02:07:57;;;;;;;5.67;5.17;;;2.20;99.90;;;;;;4933613;28;20508;-88
2023/01/22 02:10:44;;;;;;;6.20;5.60;;;2.20;99.90;;;;;;4932075;28;20507;-88
2023/01/22 02:13:22;;;;;;;6.47;5.83;;;2.20;99.90;;;;;;4908697;29;20548;-88
2023/01/22 02:15:52;;;;;;;6.80;6.10;;;2.20;99.90;;;;;;4916260;29;20497;-87
2023/01/22 02:18:25;;;;;;;6.00;5.40;;;2.20;99.90;;;;;;4916825;29;20473;-89
2023/01/22 02:20:56;;;;;;;6.07;5.47;;;2.20;99.90;;;;;;4913534;29;20521;-87
2023/01/22 02:23:25;;;;;;;6.20;5.60;;;2.20;99.90;;;;;;4931500;28;20471;-87
2023/01/22 02:25:54;;;;;;;7.17;5.57;;;2.10;99.90;;;;;;4933677;28;20472;-89
2023/01/22 02:28:25;;;;;;;8.50;7.80;;;2.20;99.90;;;;;;4933698;28;20457;-88
2023/01/22 02:30:57;;;;;;;8.27;5.77;;;2.10;99.90;;;;;;4932446;28;20457;-89
2023/01/22 02:33:32;;;;;;;5.90;5.30;;;2.10;99.90;;;;;;4918881;28;20474;-89
2023/01/22 02:36:07;;;;;;;7.20;6.00;;;2.10;99.90;;;;;;4913783;28;20471;-87
2023/01/22 02:38:41;;;;;;;6.70;5.83;;;2.10;99.90;;;;;;4909119;28;20468;-88
2023/01/22 02:41:15;;;;;;;6.67;5.97;;;2.10;99.90;;;;;;4910736;28;21057;-89
2023/01/22 02:43:49;;;;;;;6.67;5.97;;;2.10;99.90;;;;;;4910284;28;20454;-89
2023/01/22 02:46:24;;;;;;;6.20;5.03;;;2.10;99.90;;;;;;4917117;28;20462;-89
2023/01/22 02:48:54;;;;;;;7.50;6.47;;;2.10;99.90;;;;;;4909385;28;20454;-87
2023/01/22 02:51:25;;;;;;;6.50;5.77;;;2.10;99.90;;;;;;4923185;28;20492;-88
2023/01/22 02:54:00;;;;;;;6.43;5.83;;;2.10;99.90;;;;;;4929060;28;20477;-89
2023/01/22 02:56:28;;;;;;;6.93;6.23;;;2.20;99.90;;;;;;4932398;28;20464;-87
2023/01/22 02:58:56;;;;;;;6.27;5.67;;;2.10;99.90;;;;;;4930608;28;20500;-89
2023/01/22 03:01:25;;;;;;;5.67;5.17;;;2.10;99.90;;;;;;4932470;28;20647;-88
2023/01/22 03:03:55;;;;;;;7.20;5.70;;;2.20;99.90;;;;;;4931000;28;20461;-89
2023/01/22 03:06:26;;;;;;;6.37;5.40;;;2.10;99.90;;;;;;4935680;28;20547;-90
2023/01/22 03:08:59;;;;;;;6.70;5.57;;;2.20;99.90;;;;;;4932260;28;20532;-87
2023/01/22 03:11:30;;;;;;;6.27;5.67;;;2.20;99.90;;;;;;4930485;28;20490;-89
2023/01/22 03:22:23;;;;;;;5.97;5.33;;;2.10;99.90;;;;;;4930032;28;23174;-88
2023/01/22 03:24:53;;;;;;;6.10;5.50;;;2.10;99.90;;;;;;4926019;28;20468;-89
2023/01/22 03:27:26;;;;;;;5.90;5.30;;;2.20;99.90;;;;;;4926540;28;20465;-88
2023/01/22 03:29:59;;;;;;;6.03;5.43;;;2.20;99.90;;;;;;4930163;28;20453;-91
2023/01/22 03:32:30;;;;;;;7.27;5.47;;;2.20;99.90;;;;;;4931479;28;20504;-89
2023/01/22 03:35:00;;;;;;;6.73;5.97;;;2.20;99.90;;;;;;4931088;28;20467;-89
2023/01/22 03:37:32;;;;;;;6.63;5.87;;;2.20;99.90;;;;;;4923839;28;20761;-89
2023/01/22 03:40:01;;;;;;;5.67;5.17;;;2.20;99.90;;;;;;4932608;28;20513;-89
2023/01/22 03:42:38;;;;;;;6.07;5.57;;;2.20;99.90;;;;;;4930646;28;20485;-88
2023/01/22 03:45:11;;;;;;;7.83;5.97;;;2.20;99.90;;;;;;4928039;28;20556;-87
2023/01/22 03:47:45;;;;;;;6.20;5.60;;;2.20;99.90;;;;;;4931287;28;20472;-88
2023/01/22 03:50:14;;;;;;;5.87;5.27;;;2.20;99.90;;;;;;4933028;28;20487;-90
2023/01/22 03:52:56;;;;;;;6.93;5.70;;;2.20;99.90;;;;;;4933762;28;20488;-89
2023/01/22 03:55:25;;;;;;;5.67;5.13;;;2.20;99.90;;;;;;4933934;28;20448;-88
2023/01/22 03:57:59;;;;;;;6.03;5.37;;;2.20;99.90;;;;;;4937121;28;20484;-88
2023/01/22 04:00:28;;;;;;;6.53;5.50;;;2.20;99.90;;;;;;4932817;28;20498;-89
2023/01/22 04:02:56;;;;;;;5.37;4.57;;;2.20;99.90;;;;;;4933295;28;20540;-88
2023/01/22 04:05:28;;;;;;;7.87;5.60;;;2.20;99.90;;;;;;4937843;28;20448;-87
2023/01/22 04:07:59;;;;;;;5.33;4.83;;;2.20;99.90;;;;;;4940617;28;20476;-89
2023/01/22 04:10:32;;;;;;;6.07;4.83;;;2.20;99.90;;;;;;4933252;28;20463;-89
2023/01/22 04:13:02;;;;;;;5.63;5.13;;;2.20;99.90;;;;;;4933409;28;20508;-89
2023/01/22 04:15:45;;;;;;;5.87;5.37;;;2.20;99.90;;;;;;4934485;28;20488;-89
2023/01/22 04:18:18;;;;;;;6.70;5.20;;;2.20;99.90;;;;;;4933112;28;20449;-88
2023/01/22 04:20:51;;;;;;;6.10;5.47;;;2.20;99.90;;;;;;4937385;28;20488;-89
2023/01/22 04:23:24;;;;;;;5.30;4.73;;;2.20;99.90;;;;;;4940843;28;20464;-88
2023/01/22 04:25:55;;;;;;;6.23;5.10;;;2.20;99.90;;;;;;4935267;28;20481;-88
2023/01/22 04:28:31;;;;;;;5.40;4.90;;;2.20;99.90;;;;;;4934836;28;20461;-88
2023/01/22 04:31:03;;;;;;;5.53;4.90;;;2.20;99.90;;;;;;4933976;28;20500;-89
2023/01/22 04:33:34;;;;;;;5.23;4.73;;;2.20;99.90;;;;;;4933077;28;20451;-89
2023/01/22 04:36:02;;;;;;;6.67;5.20;;;2.20;99.90;;;;;;4934691;28;20481;-88
2023/01/22 04:38:39;;;;;;;5.33;4.83;;;2.20;99.90;;;;;;4934177;28;20465;-87
2023/01/22 04:41:09;;;;;;;6.10;5.00;;;2.20;99.90;;;;;;4927189;28;20496;-88
2023/01/22 04:43:46;;;;;;;6.57;4.90;;;2.20;99.90;;;;;;4927707;28;20482;-87
2023/01/22 04:46:20;;;;;;;5.50;5.00;;;2.20;99.90;;;;;;4927344;28;20552;-89
2023/01/22 04:48:54;;;;;;;5.43;4.70;;;2.20;99.90;;;;;;4935108;28;20533;-88
2023/01/22 04:51:24;;;;;;;6.43;5.10;;;2.20;99.90;;;;;;4932566;28;20476;-89
2023/01/22 04:53:54;;;;;;;5.80;5.23;;;2.30;99.90;;;;;;4934476;28;20456;-88
2023/01/22 04:56:26;;;;;;;7.40;5.63;;;2.30;99.90;;;;;;4929021;28;20488;-87
2023/01/22 04:58:58;;;;;;;5.53;4.90;;;2.30;99.90;;;;;;4930674;28;20488;-90
2023/01/22 05:01:26;;;;;;;5.07;4.57;;;2.30;99.90;;;;;;4930955;28;20472;-88
2023/01/22 05:04:00;;;;;;;5.20;4.70;;;2.30;99.90;;;;;;4935046;28;20462;-88
2023/01/22 05:06:30;;;;;;;8.20;5.23;;;2.30;99.90;;;;;;4935096;28;20468;-89
2023/01/22 05:09:00;;;;;;;6.57;5.37;;;2.30;99.90;;;;;;4925861;28;20488;-89
2023/01/22 05:11:30;;;;;;;5.83;5.27;;;2.30;99.90;;;;;;4934086;28;20468;-86
2023/01/22 05:14:00;;;;;;;5.90;5.30;;;2.30;99.90;;;;;;4931857;28;20997;-89
2023/01/22 05:16:31;;;;;;;5.90;5.30;;;2.30;99.90;;;;;;4933901;28;20464;-88
2023/01/22 05:18:59;;;;;;;8.07;5.23;;;2.30;99.90;;;;;;4929655;28;20461;-88
2023/01/22 05:21:30;;;;;;;5.77;4.87;;;2.30;99.90;;;;;;4928753;28;20481;-89
2023/01/22 05:24:08;;;;;;;6.27;5.17;;;2.30;99.90;;;;;;4931916;28;20573;-87
2023/01/22 05:26:39;;;;;;;6.77;5.17;;;2.30;99.90;;;;;;4929588;28;20523;-88
2023/01/22 05:29:10;;;;;;;5.60;5.10;;;2.30;99.90;;;;;;4923476;28;20449;-87
2023/01/22 05:31:43;;;;;;;5.77;4.40;;;2.30;99.90;;;;;;4932680;28;20468;-90
2023/01/22 05:34:17;;;;;;;5.97;4.70;;;2.30;99.90;;;;;;4936395;28;20465;-89
2023/01/22 05:36:50;;;;;;;6.90;5.53;;;2.30;99.90;;;;;;4934450;28;20488;-87
2023/01/22 05:39:23;;;;;;;7.20;5.00;;;2.30;99.90;;;;;;4928372;28;20460;-88
2023/01/22 05:41:57;;;;;;;5.87;5.20;;;2.30;99.90;;;;;;4934390;28;20514;-89
2023/01/22 05:44:28;;;;;;;6.30;5.30;;;2.40;99.90;;;;;;4934306;28;20505;-88
2023/01/22 05:46:59;;;;;;;6.10;5.47;;;2.40;99.90;;;;;;4937052;28;20469;-89
2023/01/22 05:49:28;;;;;;;6.47;4.97;;;2.40;99.90;;;;;;4937408;28;20495;-88
2023/01/22 05:51:58;;;;;;;5.07;4.57;;;2.40;99.90;;;;;;4933951;28;20464;-88
2023/01/22 05:54:29;;;;;;;6.00;5.30;;;2.40;99.90;;;;;;4934548;28;20484;-89
2023/01/22 05:56:57;;;;;;;6.00;5.50;;;2.40;99.90;;;;;;4929704;28;20746;-90
2023/01/22 05:59:27;;;;;;;6.30;5.27;;;2.40;99.90;;;;;;4931773;28;20501;-89
2023/01/22 06:01:55;;;;;;;7.07;4.93;;;2.40;99.90;;;;;;4926481;28;20471;-88
2023/01/22 06:04:28;;;;;;;5.67;4.87;;;2.40;99.90;;;;;;4935008;28;20460;-86
2023/01/22 06:06:56;;;;;;;5.00;4.50;;;2.40;99.90;;;;;;4932567;28;20465;-88
2023/01/22 06:09:28;;;;;;;5.30;4.80;;;2.40;99.90;;;;;;4935989;28;20457;-88
2023/01/22 06:11:59;;;;;;;6.10;5.03;;;2.40;99.90;;;;;;4930009;28;20482;-88
2023/01/22 06:14:32;;;;;;;8.20;5.00;;;2.40;99.90;;;;;;4937731;28;20554;-87
2023/01/22 06:17:03;;;;;;;7.17;4.87;;;2.40;99.90;;;;;;4936322;28;20513;-88
2023/01/22 06:19:31;;;;;;;6.30;4.80;;;2.50;99.90;;;;;;4931540;28;20468;-87
2023/01/22 06:22:01;;;;;;;5.07;4.40;;;2.50;99.90;;;;;;4925797;28;20469;-87
2023/01/22 06:24:31;;;;;;;6.30;4.83;;;2.40;99.90;;;;;;4925569;28;20457;-86
2023/01/22 06:26:59;;;;;;;5.87;5.27;;;2.40;99.90;;;;;;4921921;28;20476;-89
2023/01/22 06:29:29;;;;;;;5.37;4.87;;;2.40;99.90;;;;;;4933681;28;20860;-89
2023/01/22 06:32:02;;;;;;;8.43;4.90;;;2.40;99.90;;;;;;4927660;28;20477;-88
2023/01/22 06:34:38;;;;;;;5.20;4.50;;;2.40;99.90;;;;;;4930487;28;20476;-88
2023/01/22 06:37:14;;;;;;;6.80;5.13;;;2.50;99.90;;;;;;4930518;28;20495;-89
2023/01/22 06:39:46;;;;;;;6.03;4.97;;;2.50;99.90;;;;;;4928999;28;20449;-89
2023/01/22 06:42:17;;;;;;;6.27;4.80;;;2.40;99.90;;;;;;4928591;28;20478;-89
2023/01/22 06:44:46;;;;;;;4.77;4.27;;;2.40;99.90;;;;;;4926193;28;20465;-88
2023/01/22 06:47:21;;;;;;;4.70;4.17;;;2.50;99.90;;;;;;4927036;28;20548;-88
2023/01/22 06:49:51;;;;;;;5.87;5.20;;;2.50;99.90;;;;;;4930013;28;20488;-89
2023/01/22 06:52:20;;;;;;;7.20;5.07;;;2.50;99.90;;;;;;4933322;28;20491;-88
2023/01/22 06:54:57;;;;;;;6.10;4.50;;;2.50;99.90;;;;;;4929996;28;20462;-89
2023/01/22 06:57:27;;;;;;;5.80;4.93;;;2.50;99.90;;;;;;4937073;28;20467;-88
2023/01/22 06:59:58;;;;;;;6.50;5.00;;;2.60;99.90;;;;;;4936724;28;20453;-86
2023/01/22 07:02:31;;;;;;;5.70;4.87;;;2.60;99.90;;;;;;4934133;28;20503;-87
2023/01/22 07:04:59;;;;;;;5.73;4.40;;;2.60;99.90;;;;;;4934457;28;20453;-88
2023/01/22 07:07:29;;;;;;;5.63;4.93;;;2.60;99.90;;;;;;4937564;28;20491;-88
2023/01/22 07:12:35;;;;;;;6.50;4.93;;;2.70;99.90;;;;;;4920271;28;21534;-72
2023/01/22 07:15:10;;;;;;;7.23;4.80;;;2.70;99.90;;;;;;4899089;29;20487;-73
2023/01/22 07:17:39;;;;;;;5.60;4.50;;;2.70;99.90;;;;;;4918703;29;20515;-72
2023/01/22 07:20:18;;;;;;;5.40;4.70;;;2.60;99.90;;;;;;4924276;29;20491;-72
2023/01/22 07:22:47;;;;;;;7.10;5.03;;;2.70;99.90;;;;;;4917572;29;20508;-72
2023/01/22 07:25:15;;;;;;;6.07;5.07;;;2.70;99.90;;;;;;4916083;29;20491;-72
2023/01/22 07:27:45;;;;;;;6.17;5.10;;;2.70;99.90;;;;;;4919063;29;20476;-72
2023/01/22 07:30:16;;;;;;;6.60;4.60;;;2.70;99.90;;;;;;4922698;29;20510;-72
2023/01/22 07:32:47;;;;;;;5.70;4.80;;;2.70;99.90;;;;;;4915668;29;20591;-73
2023/01/22 07:35:24;;;;;;;6.10;5.00;;;2.70;99.90;;;;;;4919807;29;20557;-72
2023/01/22 07:37:54;;;;;;;5.70;4.87;;;2.70;99.90;;;;;;4918422;29;20488;-72
2023/01/22 07:40:26;;;;;;;7.27;4.90;;;2.70;99.90;;;;;;4916823;29;20559;-72
2023/01/22 07:43:04;;;;;;;5.53;4.80;;;2.80;99.90;;;;;;4915354;29;20495;-73
2023/01/22 07:45:40;;;;;;;5.63;4.87;;;2.80;99.90;;;;;;4912676;29;20606;-72
2023/01/22 07:48:11;;;;;;;5.27;4.77;;;2.80;99.90;;;;;;4908761;29;20488;-73
2023/01/22 07:50:43;;;;;;;5.90;4.90;;;2.80;99.90;;;;;;4922604;29;20503;-72
2023/01/22 07:53:14;;;;;;;5.83;4.80;;;2.90;99.90;;;;;;4926975;28;20495;-76
2023/01/22 07:55:45;;;;;;;7.73;4.80;;;2.80;99.90;;;;;;4934431;28;20827;-74
2023/01/22 07:58:15;;;;;;;8.13;4.53;;;2.80;99.90;;;;;;4932164;28;20987;-74
2023/01/22 08:00:45;;;;;;;8.80;4.70;;;2.90;99.90;;;;;;4929896;28;20600;-74
2023/01/22 08:03:14;;;;;;;7.90;4.80;;;2.90;99.90;;;;;;4921294;28;20487;-74
2023/01/22 08:05:43;;;;;;;5.67;5.13;;;2.90;99.90;;;;;;4912872;28;21022;-74
2023/01/22 08:08:13;;;;;;;5.30;4.67;;;2.90;99.90;;;;;;4920852;28;20529;-74
2023/01/22 08:10:42;;;;;;;5.93;4.73;;;2.90;99.90;;;;;;4934428;28;21495;-74
2023/01/22 08:13:12;;;;;;;5.00;4.23;;;2.90;99.90;;;;;;4926168;28;20542;-74
2023/01/22 08:15:43;;;;;;;6.50;4.77;;;2.90;99.90;;;;;;4926310;28;20479;-74
2023/01/22 08:18:11;;;;;;;7.67;5.37;;;2.90;99.90;;;;;;4930694;28;20486;-74
2023/01/22 08:20:39;;;;;;;6.07;4.67;;;2.90;99.90;;;;;;4929124;28;20503;-74
2023/01/22 08:23:07;;;;;;;6.00;5.27;;;2.90;99.90;;;;;;4913841;28;20510;-74
2023/01/22 08:25:37;;;;;;;7.80;4.83;;;3.00;99.90;;;;;;4919831;28;20700;-75
2023/01/22 08:28:08;;;;;;;7.43;4.90;;;3.00;99.90;;;;;;4937338;28;20483;-74
2023/01/22 08:30:37;;;;;;;5.77;5.00;;;3.00;99.90;;;;;;4932748;28;20502;-74
2023/01/22 08:33:15;;;;;;;5.93;4.90;;;3.00;99.90;;;;;;4927112;28;20483;-74
2023/01/22 08:35:43;;;;;;;7.07;4.87;;;3.00;99.90;;;;;;4930510;28;20472;-74
2023/01/22 08:38:11;;;;;;;6.73;4.63;;;3.00;99.90;;;;;;4937398;28;20481;-74
2023/01/22 08:40:39;;;;;;;7.27;4.33;;;3.00;99.90;;;;;;4928450;28;20510;-74
2023/01/22 08:43:07;;;;;;;7.13;4.90;;;3.00;99.90;;;;;;4930966;28;20502;-74
2023/01/22 08:45:35;;;;;;;5.80;4.43;;;3.00;99.90;;;;;;4932684;28;20482;-74
2023/01/22 08:48:04;;;;;;;5.13;4.37;;;3.10;99.90;;;;;;4942178;28;20975;-74
2023/01/22 08:50:33;;;;;;;8.17;4.60;;;3.10;99.90;;;;;;4951190;28;20491;-74
2023/01/22 08:53:01;;;;;;;8.00;5.27;;;3.10;99.90;;;;;;4944773;28;20486;-74
2023/01/22 08:55:29;;;;;;;9.10;4.60;;;3.10;99.90;;;;;;4944548;28;20830;-74
2023/01/22 08:57:57;;;;;;;5.83;4.10;;;3.10;99.90;;;;;;4948866;28;20494;-74
2023/01/22 09:00:26;;;;;;;8.27;4.53;;;3.10;99.90;;;;;;4941180;29;21038;-74
2023/01/22 09:02:57;;;;;;;8.67;5.33;;;3.10;99.90;;;;;;4939399;28;20487;-74
2023/01/22 09:05:26;;;;;;;5.50;4.67;;;3.10;99.90;;;;;;4948736;28;20488;-74
2023/01/22 09:07:58;;;;;;;4.90;4.40;;;3.10;99.90;;;;;;4938800;29;20482;-74
2023/01/22 09:10:26;;;;;;;5.83;4.40;;;3.10;99.90;;;;;;4940483;28;20891;-74
2023/01/22 09:12:54;;;;;;;4.83;4.33;;;3.10;99.90;;;;;;4954337;28;20483;-74
2023/01/22 09:15:22;;;;;;;6.97;4.87;;;3.10;99.90;;;;;;4946360;28;20484;-74
2023/01/22 09:17:50;;;;;;;7.10;4.83;;;3.10;99.90;;;;;;4941954;28;20481;-74
2023/01/22 09:20:20;;;;;;;5.57;4.70;;;3.10;99.90;;;;;;4942606;29;20499;-74
2023/01/22 09:22:48;;;;;;;8.03;5.50;;;3.20;99.90;;;;;;4940028;28;20607;-74
2023/01/22 09:25:18;;;;;;;4.57;4.13;;;3.20;99.90;;;;;;4942953;29;20479;-75
2023/01/22 09:27:46;;;;;;;5.60;4.20;;;3.20;99.90;;;;;;4940214;28;20475;-74
2023/01/22 09:30:14;;;;;;;7.07;4.53;;;3.20;99.90;;;;;;4939527;28;20514;-74
2023/01/22 09:32:42;;;;;;;5.63;4.80;;;3.20;99.90;;;;;;4960030;28;20520;-74
2023/01/22 09:35:10;;;;;;;8.63;5.20;;;3.20;99.90;;;;;;4972670;28;20466;-74
2023/01/22 09:37:38;;;;;;;4.40;4.00;;;3.20;99.90;;;;;;4967371;28;20475;-73
2023/01/22 09:40:10;;;;;;;6.00;4.20;;;3.30;99.90;;;;;;4972742;28;20477;-74
2023/01/22 09:42:41;;;;;;;4.17;3.77;;;3.30;99.90;;;;;;4960267;28;20494;-74
2023/01/22 09:45:13;;;;;;;6.03;4.20;;;3.30;99.90;;;;;;4940473;28;20476;-74
2023/01/22 09:47:46;;;;;;;5.40;4.20;;;3.30;99.90;;;;;;4940463;29;20476;-74
2023/01/22 09:50:18;;;;;;;8.73;4.40;;;3.30;99.90;;;;;;4937780;28;20495;-73
2023/01/22 09:52:49;;;;;;;6.87;4.60;;;3.30;99.90;;;;;;4947992;28;20511;-74
2023/01/22 09:55:20;;;;;;;6.90;4.10;;;3.30;99.90;;;;;;4940301;28;20522;-73
2023/01/22 09:57:52;;;;;;;9.53;4.60;;;3.30;99.90;;;;;;4942851;28;20475;-74
2023/01/22 10:00:22;;;;;;;9.30;4.50;;;3.40;99.90;;;;;;4953637;28;20508;-74
2023/01/22 10:02:56;;;;;;;5.60;3.80;;;3.40;99.90;;;;;;4950322;28;20478;-74
2023/01/22 10:05:33;;;;;;;12.50;4.17;;;3.40;99.90;;;;;;4957935;28;20478;-74
2023/01/22 10:08:06;;;;;;;6.20;4.27;;;3.40;99.90;;;;;;4955219;28;21286;-74
2023/01/22 10:10:35;;;;;;;4.93;3.47;;;3.40;99.90;;;;;;4939438;28;20540;-74
2023/01/22 10:13:16;;;;;;;8.43;4.17;;;3.40;99.90;;;;;;4943754;28;20487;-74
2023/01/22 10:15:45;;;;;;;6.47;3.80;;;3.50;99.90;;;;;;4945341;28;20480;-74
2023/01/22 10:18:26;;;;;;;7.17;3.90;;;3.50;99.90;;;;;;4949160;29;20475;-74
2023/01/22 10:20:55;;;;;;;6.47;3.93;;;3.50;99.90;;;;;;4949297;28;20503;-74
2023/01/22 10:23:25;;;;;;;4.63;4.23;;;3.60;99.90;;;;;;4951651;28;20499;-74
2023/01/22 10:26:01;;;;;;;4.73;4.10;;;3.60;99.90;;;;;;4943261;28;20570;-74
2023/01/22 10:28:32;;;;;;;6.10;4.00;;;3.60;99.90;;;;;;4939721;28;20478;-74
2023/01/22 10:31:00;;;;;;;4.43;4.03;;;3.70;99.90;;;;;;4944093;28;20517;-74
2023/01/22 10:33:30;;;;;;;6.17;3.97;;;3.70;99.90;;;;;;4949957;28;20507;-74
2023/01/22 10:36:04;;;;;;;5.67;3.90;;;3.70;99.90;;;;;;4942533;28;20479;-74
2023/01/22 10:38:32;;;;;;;4.43;3.83;;;3.70;99.90;;;;;;4946138;28;20478;-74
2023/01/22 10:41:03;;;;;;;5.13;3.93;;;3.70;99.90;;;;;;4943839;28;20496;-74
2023/01/22 10:43:35;;;;;;;5.53;4.10;;;3.80;99.90;;;;;;4949035;29;20594;-74
2023/01/22 10:46:05;;;;;;;6.37;4.33;;;3.80;99.90;;;;;;4940091;28;20482;-74
2023/01/22 10:48:34;;;;;;;6.03;4.30;;;3.80;99.90;;;;;;4943739;28;20475;-74
2023/01/22 10:51:12;;;;;;;4.60;3.63;;;3.80;99.90;;;;;;4941192;28;20499;-74
2023/01/22 10:53:47;;;;;;;5.00;3.80;;;3.80;99.90;;;;;;4942264;28;21629;-74
2023/01/22 10:56:28;;;;;;;6.97;3.97;;;3.80;99.90;;;;;;4936975;28;20846;-74
2023/01/22 10:58:58;;;;;;;4.33;3.23;;;3.90;99.90;;;;;;4935418;28;20482;-74
2023/01/22 11:01:34;;;;;;;5.10;3.33;;;3.90;99.90;;;;;;4936052;28;20495;-74
2023/01/22 11:04:12;;;;;;;6.60;3.67;;;3.90;99.90;;;;;;4921072;28;20866;-74
2023/01/22 11:06:43;;;;;;;7.63;4.17;;;3.90;99.90;;;;;;4927106;28;20490;-74
2023/01/22 11:09:17;;;;;;;5.30;3.87;;;3.90;99.90;;;;;;4922980;28;20502;-74
2023/01/22 11:11:49;;;;;;;6.43;3.73;;;3.90;99.90;;;;;;4923146;28;21014;-74
2023/01/22 11:14:23;;;;;;;6.50;3.93;;;3.90;99.90;;;;;;4922700;28;20498;-74
2023/01/22 11:16:55;;;;;;;4.07;3.60;;;3.90;99.90;;;;;;4930211;28;20502;-74
2023/01/22 11:19:27;;;;;;;6.27;3.80;;;3.90;99.90;;;;;;4930732;28;21155;-74
2023/01/22 11:22:11;;;;;;;4.90;3.80;;;4.00;99.90;;;;;;4928180;28;20502;-74
2023/01/22 11:24:45;;;;;;;4.20;3.50;;;4.00;99.90;;;;;;4931681;28;20545;-74
2023/01/22 11:27:55;;;;;;;6.80;3.37;;;4.00;99.90;;;;;;4941425;28;20554;-74
2023/01/22 11:30:49;;;;;;;5.97;3.60;;;4.00;99.90;;;;;;4919738;28;30488;-74
2023/01/22 11:33:36;;;;;;;6.40;3.67;;;4.00;99.90;;;;;;4937100;28;20511;-74
2023/01/22 11:36:10;;;;;;;4.60;3.00;;;4.00;99.90;;;;;;4938497;28;20529;-74
2023/01/22 11:38:48;;;;;;;5.70;3.70;;;4.00;99.90;;;;;;4940059;28;21613;-74
2023/01/22 11:41:50;;;;;;;7.03;4.10;;;4.00;99.90;;;;;;4936514;28;20499;-73
2023/01/22 11:44:46;;;;;;;5.73;3.90;;;4.00;99.90;;;;;;4920199;28;20532;-73
2023/01/22 11:47:46;;;;;;;6.33;3.97;;;4.00;99.90;;;;;;4935417;28;20497;-74
2023/01/22 11:50:26;;;;;;;8.27;4.03;;;4.00;99.90;;;;;;4938965;28;20507;-74
2023/01/22 11:53:04;;;;;;;7.50;3.13;;;4.00;99.90;;;;;;4934958;28;20521;-73
2023/01/22 11:55:49;;;;;;;4.53;3.77;;;4.10;99.90;;;;;;4928334;28;20490;-73
2023/01/22 11:58:24;;;;;;;4.70;3.50;;;4.00;99.90;;;;;;4928906;28;20494;-74
2023/01/22 12:01:00;;;;;;;6.20;3.50;;;4.10;99.90;;;;;;4928251;28;20521;-73
2023/01/22 12:03:58;;;;;;;7.40;3.40;;;4.10;99.90;;;;;;4948139;28;20859;-73
2023/01/22 12:06:51;;;;;;;4.60;3.30;;;4.10;99.90;;;;;;4939948;28;20490;-74
2023/01/22 12:09:24;;;;;;;6.67;3.80;;;4.10;99.90;;;;;;4935653;28;20491;-74
2023/01/22 12:12:13;;;;;;;5.13;2.97;;;4.20;99.90;;;;;;4925368;28;20493;-74
2023/01/22 12:14:51;;;;;;;3.40;3.10;;;4.20;99.90;;;;;;4933332;28;20872;-73
2023/01/22 12:17:34;;;;;;;4.77;2.77;;;4.20;99.90;;;;;;4930844;28;20569;-74
2023/01/22 12:20:23;;;;;;;5.30;3.30;;;4.20;99.90;;;;;;4943194;28;20497;-74
2023/01/22 12:22:57;;;;;;;4.03;2.80;;;4.20;99.90;;;;;;4919767;28;20495;-73
2023/01/22 12:25:37;;;;;;;5.33;2.90;;;4.30;99.90;;;;;;4927291;28;20491;-74
2023/01/22 12:28:15;;;;;;;8.30;3.60;;;4.30;99.90;;;;;;4934308;28;20489;-74
2023/01/22 12:30:50;;;;;;;7.13;3.43;;;4.30;99.90;;;;;;4934574;28;20490;-74
2023/01/22 12:33:22;;;;;;;4.93;3.30;;;4.30;99.90;;;;;;4926988;28;20483;-73
2023/01/22 12:35:57;;;;;;;6.70;3.20;;;4.40;99.90;;;;;;4923781;28;20494;-73
2023/01/22 12:38:40;;;;;;;3.90;2.77;;;4.40;99.90;;;;;;4925171;28;20498;-74
2023/01/22 12:41:25;;;;;;;6.77;3.10;;;4.40;99.90;;;;;;4928314;28;20490;-73
2023/01/22 12:43:56;;;;;;;3.87;3.13;;;4.40;99.90;;;;;;4933768;28;20520;-73
2023/01/22 12:46:33;;;;;;;4.50;3.23;;;4.40;99.90;;;;;;4932143;28;20487;-73
2023/01/22 12:49:06;;;;;;;5.20;2.90;;;4.40;99.90;;;;;;4933430;28;20502;-74
2023/01/22 12:51:40;;;;;;;5.03;3.03;;;4.40;99.90;;;;;;4928549;28;20506;-74
2023/01/22 12:54:20;;;;;;;6.17;3.40;;;4.40;99.90;;;;;;4929967;28;20486;-74
2023/01/22 12:56:55;;;;;;;3.97;2.70;;;4.50;99.90;;;;;;4925181;28;20587;-74
2023/01/22 12:59:32;;;;;;;6.80;3.57;;;4.40;99.90;;;;;;4937093;28;20589;-74
2023/01/22 13:02:04;;;;;;;6.23;2.73;;;4.50;99.90;;;;;;4914803;28;20502;-73
2023/01/22 13:04:34;;;;;;;3.80;2.80;;;4.50;99.90;;;;;;4906529;28;20522;-74
2023/01/22 13:07:23;;;;;;;6.53;3.30;;;4.50;99.90;;;;;;4918904;28;20494;-73
2023/01/22 13:10:01;;;;;;;4.30;2.57;;;4.50;99.90;;;;;;4917648;28;20498;-74
2023/01/22 13:12:42;;;;;;;3.63;2.50;;;4.50;99.90;;;;;;4925126;28;20501;-74
2023/01/22 13:15:18;;;;;;;3.93;2.70;;;4.60;99.90;;;;;;4925240;28;20570;-74
2023/01/22 13:17:53;;;;;;;4.20;2.20;;;4.60;99.90;;;;;;4920034;28;20528;-73
2023/01/22 13:20:36;;;;;;;4.30;2.80;;;4.60;99.90;;;;;;4901292;28;20494;-72
2023/01/22 13:23:07;;;;;;;5.67;2.67;;;4.60;99.90;;;;;;4904959;28;22164;-74
2023/01/22 13:25:35;;;;;;;4.00;2.43;;;4.60;99.90;;;;;;4904374;28;20499;-74
2023/01/22 13:28:03;;;;;;;6.03;2.50;;;4.60;99.90;;;;;;4927878;28;20855;-74
2023/01/22 13:30:31;;;;;;;3.47;2.30;;;4.60;99.90;;;;;;4898088;28;20495;-74
2023/01/22 13:33:07;;;;;;;5.10;3.03;;;4.60;99.90;;;;;;4891726;28;20495;-74
2023/01/22 13:35:36;;;;;;;6.70;3.13;;;4.70;99.90;;;;;;4925058;28;20486;-73
2023/01/22 13:38:06;;;;;;;5.17;2.77;;;4.60;99.90;;;;;;4906163;28;20503;-73